Ancramdale, New York
Current Conditions -  °F | °C
As of 6:53 PM on Wednesday 22 Oct 2014 (Local Time) from KPOU Reporting Station
Haze Haze  
Wind Chill: 51°   Ceiling: 1100
Heat Index: 51°   Visibility: 6mi
Dew Point: 47°   Wind: 14mph
Humidity: 86%   Direction: 360°N
Pressure: 29.89"   Gusts: 22mph
Location:  42.02°N, 73.59°W
Report Text: KPOU 222253Z 36012G19KT 6SM BR OVC011 11/08 A2989 RMK AO2 RAB05E52 SLP117 P0001 T01060083
Loading
Personal Weather Stations






























Interactive Weather Map
Tropical Storm Tracking
New forecast layout! Learn more

10-Day Weather Forecast

Advertisements
Track Severe Weather on mobile